createdAt,value
2022-11-29T00:01:05.630Z,24.17
2022-11-29T00:03:33.210Z,20.15
2022-11-29T00:06:11.799Z,24.27
2022-11-29T00:08:39.191Z,22.67
2022-11-29T00:11:13.643Z,24.38
2022-11-29T00:13:40.381Z,23.40
2022-11-29T00:16:10.755Z,23.55
2022-11-29T00:18:37.872Z,24.33
2022-11-29T00:21:08.327Z,25.25
2022-11-29T00:23:35.458Z,21.98
2022-11-29T00:26:08.197Z,23.08
2022-11-29T00:28:36.020Z,19.50
2022-11-29T00:31:32.559Z,21.98
2022-11-29T00:34:01.697Z,24.83
2022-11-29T00:36:28.883Z,22.85
2022-11-29T00:38:55.457Z,22.95
2022-11-29T00:41:22.110Z,24.83
2022-11-29T00:43:48.466Z,22.55
2022-11-29T00:46:15.199Z,25.77
2022-11-29T00:48:41.662Z,25.33
2022-11-29T00:51:08.387Z,23.50
2022-11-29T00:53:35.980Z,24.65
2022-11-29T00:56:03.658Z,22.63
2022-11-29T00:58:30.526Z,20.80
2022-11-29T01:00:57.030Z,24.10
2022-11-29T01:03:24.870Z,24.02
2022-11-29T01:09:38.028Z,24.30
2022-11-29T01:12:04.490Z,22.45
2022-11-29T01:14:30.957Z,23.17
2022-11-29T01:16:57.398Z,23.55
2022-11-29T01:19:23.801Z,22.55
2022-11-29T01:21:50.137Z,24.42
2022-11-29T01:24:16.446Z,23.58
2022-11-29T01:26:42.758Z,23.90
2022-11-29T01:29:13.016Z,23.58
2022-11-29T01:31:39.633Z,23.17
2022-11-29T01:34:07.179Z,25.17
2022-11-29T01:36:34.393Z,25.63
2022-11-29T01:39:02.169Z,22.08
2022-11-29T01:41:31.380Z,22.88
2022-11-29T01:44:04.556Z,25.70
2022-11-29T01:46:42.057Z,26.08
2022-11-29T01:49:18.653Z,27.67
2022-11-29T01:51:50.118Z,25.95
2022-11-29T01:54:17.479Z,25.95
2022-11-29T01:56:46.142Z,24.30
2022-11-29T01:59:15.590Z,22.00
2022-11-29T02:01:42.257Z,27.08
2022-11-29T02:04:09.304Z,26.40
2022-11-29T02:06:39.196Z,24.75
2022-11-29T02:09:15.655Z,23.65
2022-11-29T02:12:06.537Z,26.10
2022-11-29T02:15:05.962Z,28.15
2022-11-29T02:18:10.471Z,24.45
2022-11-29T02:21:03.225Z,24.98
2022-11-29T02:23:51.318Z,23.10
2022-11-29T02:26:45.702Z,23.92
2022-11-29T02:29:37.474Z,25.83
2022-11-29T02:32:25.176Z,26.55
2022-11-29T02:35:29.355Z,23.52
2022-11-29T02:38:07.749Z,20.33
2022-11-29T02:40:46.173Z,24.10
2022-11-29T02:43:40.674Z,24.88
2022-11-29T02:46:36.124Z,23.45
2022-11-29T02:49:27.123Z,26.23
2022-11-29T02:52:07.406Z,22.58
2022-11-29T02:54:50.056Z,24.98
2022-11-29T02:57:42.833Z,23.00
2022-11-29T03:00:13.787Z,24.63
2022-11-29T03:03:15.680Z,25.73
2022-11-29T03:05:45.029Z,24.75
2022-11-29T03:08:34.267Z,25.42
2022-11-29T03:11:12.385Z,24.67
2022-11-29T03:13:55.606Z,23.52
2022-11-29T03:16:42.554Z,24.80
2022-11-29T03:19:35.158Z,25.67
2022-11-29T03:22:22.486Z,24.50
2022-11-29T03:25:24.189Z,23.10
2022-11-29T03:28:11.075Z,22.98
2022-11-29T03:30:41.623Z,21.40
2022-11-29T03:33:30.527Z,20.67
2022-11-29T03:36:07.118Z,23.08
2022-11-29T03:38:41.842Z,24.45
2022-11-29T03:41:14.107Z,27.25
2022-11-29T03:43:55.704Z,24.73
2022-11-29T03:46:44.037Z,22.77
2022-11-29T03:49:21.817Z,21.83
2022-11-29T03:52:25.869Z,21.15
2022-11-29T03:55:30.117Z,22.88
2022-11-29T03:58:12.680Z,23.38
2022-11-29T04:00:55.129Z,26.95
2022-11-29T04:03:58.700Z,23.13
2022-11-29T04:06:53.173Z,21.75
2022-11-29T04:09:27.834Z,26.35
2022-11-29T04:12:12.878Z,23.57
2022-11-29T04:15:01.041Z,21.83
2022-11-29T04:17:58.493Z,22.27
2022-11-29T04:20:48.391Z,21.33
2022-11-29T04:23:36.677Z,23.17
2022-11-29T04:26:29.681Z,24.13
2022-11-29T04:29:01.561Z,20.80
2022-11-29T04:31:41.006Z,21.52
2022-11-29T04:34:45.064Z,21.80
2022-11-29T04:37:22.060Z,20.67
2022-11-29T04:40:21.463Z,21.33
2022-11-29T04:43:13.837Z,22.75
2022-11-29T04:46:17.259Z,20.60
2022-11-29T04:49:07.296Z,22.17
2022-11-29T04:52:15.110Z,21.35
2022-11-29T04:54:56.996Z,20.42
2022-11-29T04:57:44.060Z,20.45
2022-11-29T05:00:18.517Z,20.30
2022-11-29T05:02:58.425Z,17.98
2022-11-29T05:05:36.246Z,20.88
2022-11-29T05:08:20.790Z,18.10
2022-11-29T05:10:55.516Z,19.88
2022-11-29T05:13:40.172Z,21.05
2022-11-29T05:16:30.922Z,24.38
2022-11-29T05:19:28.111Z,20.00
2022-11-29T05:22:12.282Z,22.08
2022-11-29T05:24:53.017Z,19.58
2022-11-29T05:27:48.285Z,22.13
2022-11-29T05:30:18.327Z,21.33
2022-11-29T05:33:10.679Z,22.85
2022-11-29T05:35:44.888Z,27.73
2022-11-29T05:38:37.346Z,21.30
2022-11-29T05:41:21.753Z,27.50
2022-11-29T05:44:04.285Z,19.42
2022-11-29T05:46:49.385Z,20.45
2022-11-29T05:49:26.830Z,20.40
2022-11-29T05:51:59.186Z,24.60
2022-11-29T05:54:45.898Z,25.65
2022-11-29T05:57:42.835Z,23.65
2022-11-29T06:00:12.650Z,20.88
2022-11-29T06:03:03.515Z,23.45
2022-11-29T06:05:45.696Z,20.92
2022-11-29T06:08:14.700Z,22.45
2022-11-29T06:10:56.312Z,26.25
2022-11-29T06:13:57.288Z,24.45
2022-11-29T06:16:36.308Z,21.58
2022-11-29T06:19:37.628Z,22.77
2022-11-29T06:22:30.330Z,24.77
2022-11-29T06:25:30.581Z,25.88
2022-11-29T06:28:26.734Z,23.70
2022-11-29T06:31:01.973Z,26.60
2022-11-29T06:33:39.117Z,26.65
2022-11-29T06:37:04.167Z,28.20
2022-11-29T06:39:30.854Z,27.30
2022-11-29T06:41:57.175Z,30.90
2022-11-29T06:44:23.796Z,24.17
2022-11-29T06:47:06.287Z,22.88
2022-11-29T06:49:42.803Z,25.63
2022-11-29T06:52:34.541Z,36.33
2022-11-29T06:55:07.786Z,29.13
2022-11-29T06:57:40.321Z,35.03
2022-11-29T07:00:30.270Z,29.38
2022-11-29T07:03:25.586Z,30.92
2022-11-29T07:05:52.258Z,28.50
2022-11-29T07:08:22.034Z,33.33
2022-11-29T07:10:51.227Z,36.90
2022-11-29T07:13:18.512Z,31.77
2022-11-29T07:16:21.300Z,28.80
2022-11-29T07:19:08.134Z,34.55
2022-11-29T07:21:49.204Z,34.47
2022-11-29T07:24:37.686Z,28.17
2022-11-29T07:27:12.820Z,28.83
2022-11-29T07:30:04.875Z,32.80
2022-11-29T07:32:50.362Z,36.35
2022-11-29T07:35:29.649Z,31.27
2022-11-29T07:38:20.638Z,35.88
2022-11-29T07:41:12.235Z,28.60
2022-11-29T07:43:51.866Z,35.25
2022-11-29T07:46:18.457Z,29.40
2022-11-29T07:48:44.824Z,35.63
2022-11-29T07:51:11.296Z,35.47
2022-11-29T07:53:42.275Z,36.72
2022-11-29T07:56:12.541Z,40.38
2022-11-29T07:58:39.676Z,33.00
2022-11-29T08:01:06.252Z,33.05
2022-11-29T08:03:35.265Z,30.20
2022-11-29T08:06:03.770Z,35.30
2022-11-29T08:08:30.182Z,31.33
2022-11-29T08:10:56.510Z,30.00
2022-11-29T08:13:23.066Z,34.03
2022-11-29T08:15:49.506Z,30.70
2022-11-29T08:18:16.190Z,29.17
2022-11-29T08:20:42.955Z,25.80
2022-11-29T08:23:12.551Z,31.38
2022-11-29T08:25:39.681Z,28.27
2022-11-29T08:28:06.155Z,26.73
2022-11-29T08:30:32.596Z,20.00
2022-11-29T08:32:58.890Z,26.45
2022-11-29T08:35:25.486Z,25.45
2022-11-29T08:37:52.212Z,20.55
2022-11-29T08:40:18.628Z,19.20
2022-11-29T08:42:45.037Z,18.45
2022-11-29T08:45:12.312Z,21.00
2022-11-29T08:47:40.947Z,21.35
2022-11-29T08:50:15.881Z,21.05
2022-11-29T08:53:06.467Z,22.73
2022-11-29T08:55:39.781Z,18.88
2022-11-29T08:58:09.354Z,18.35
2022-11-29T09:00:36.422Z,19.98
2022-11-29T09:03:23.353Z,19.55
2022-11-29T09:05:50.055Z,18.67
2022-11-29T09:08:16.439Z,18.30
2022-11-29T09:10:43.202Z,26.33
2022-11-29T09:13:10.842Z,25.02
2022-11-29T09:15:38.748Z,25.10
2022-11-29T09:18:05.783Z,18.98
2022-11-29T09:20:33.422Z,19.52
2022-11-29T09:23:00.251Z,20.10
2022-11-29T09:25:27.276Z,18.95
2022-11-29T09:27:57.414Z,19.35
2022-11-29T09:30:24.005Z,20.38
2022-11-29T09:32:50.581Z,17.83
2022-11-29T09:35:17.405Z,20.92
2022-11-29T09:37:43.761Z,19.75
2022-11-29T09:40:27.520Z,15.02
2022-11-29T09:43:07.414Z,18.73
2022-11-29T09:45:41.357Z,16.90
2022-11-29T09:48:25.862Z,15.75
2022-11-29T09:51:02.274Z,14.85
2022-11-29T09:53:37.981Z,17.75
2022-11-29T09:56:33.140Z,15.98
2022-11-29T09:59:21.658Z,18.42
2022-11-29T10:02:19.703Z,16.35
2022-11-29T10:04:56.983Z,17.45
2022-11-29T10:07:34.669Z,15.70
2022-11-29T10:10:14.283Z,19.35
2022-11-29T10:12:50.127Z,17.58
2022-11-29T10:15:22.769Z,22.48
2022-11-29T10:18:10.918Z,18.98
2022-11-29T10:20:43.552Z,21.48
2022-11-29T10:23:24.367Z,26.33
2022-11-29T10:25:56.354Z,21.73
2022-11-29T10:28:27.066Z,20.23
2022-11-29T10:30:55.513Z,20.25
2022-11-29T10:33:28.240Z,22.95
2022-11-29T10:36:05.214Z,17.05
2022-11-29T10:38:32.099Z,18.58
2022-11-29T10:41:04.604Z,23.05
2022-11-29T10:43:31.345Z,21.80
2022-11-29T10:45:58.610Z,22.85
2022-11-29T10:48:31.655Z,18.90
2022-11-29T10:50:58.641Z,18.50
2022-11-29T10:53:35.556Z,17.90
2022-11-29T10:56:22.312Z,14.07
2022-11-29T10:59:04.995Z,18.17
2022-11-29T11:01:33.825Z,19.90
2022-11-29T11:04:03.124Z,16.80
2022-11-29T11:06:56.145Z,21.42
2022-11-29T11:09:26.600Z,18.70
2022-11-29T11:11:57.242Z,16.65
2022-11-29T11:14:37.831Z,18.60
2022-11-29T11:17:21.234Z,16.80
2022-11-29T11:19:56.863Z,18.35
2022-11-29T11:22:24.950Z,22.92
2022-11-29T11:25:07.067Z,17.50
2022-11-29T11:27:42.016Z,23.00
2022-11-29T11:30:23.355Z,17.52
2022-11-29T11:33:22.304Z,19.65
2022-11-29T11:36:03.952Z,20.10
2022-11-29T11:38:30.669Z,17.55
2022-11-29T11:41:02.978Z,16.27
2022-11-29T11:43:29.556Z,20.83
2022-11-29T11:45:56.020Z,17.10
2022-11-29T11:48:22.746Z,20.63
2022-11-29T11:50:54.682Z,17.90
2022-11-29T11:53:27.881Z,22.83
2022-11-29T11:56:00.646Z,22.30
2022-11-29T11:58:29.813Z,17.67
2022-11-29T12:01:14.049Z,17.95
2022-11-29T12:03:52.597Z,15.10
2022-11-29T12:06:43.005Z,16.58
2022-11-29T12:09:09.822Z,14.95
2022-11-29T12:11:47.190Z,14.52
2022-11-29T12:14:23.900Z,16.05
2022-11-29T12:16:58.762Z,16.73
2022-11-29T12:19:32.246Z,19.95
2022-11-29T12:22:06.679Z,18.40
2022-11-29T12:24:38.983Z,17.30
2022-11-29T12:27:06.005Z,18.05
2022-11-29T12:29:34.211Z,18.58
2022-11-29T12:32:38.092Z,14.27
2022-11-29T12:35:36.875Z,15.98
2022-11-29T12:38:22.113Z,15.65
2022-11-29T12:41:12.709Z,16.05
2022-11-29T12:44:03.538Z,14.38
2022-11-29T12:46:31.157Z,17.17
2022-11-29T12:49:06.997Z,14.75
2022-11-29T12:51:46.994Z,19.05
2022-11-29T12:54:34.035Z,15.55
2022-11-29T12:57:12.800Z,18.08
2022-11-29T13:00:05.284Z,15.95
2022-11-29T13:02:49.796Z,16.90
2022-11-29T13:05:33.626Z,16.30
2022-11-29T13:08:40.870Z,17.25
2022-11-29T13:11:25.560Z,17.38
2022-11-29T13:14:13.834Z,18.58
2022-11-29T13:17:02.189Z,18.63
2022-11-29T13:19:44.197Z,16.42
2022-11-29T13:22:39.526Z,17.60
2022-11-29T13:25:18.749Z,14.50
2022-11-29T13:27:56.778Z,18.30
2022-11-29T13:30:23.171Z,16.40
2022-11-29T13:33:14.993Z,17.98
2022-11-29T13:35:53.766Z,15.65
2022-11-29T13:38:26.394Z,17.20
2022-11-29T13:41:04.578Z,20.00
2022-11-29T13:43:41.213Z,23.33
2022-11-29T13:46:28.008Z,19.48
2022-11-29T13:48:54.687Z,16.52
2022-11-29T13:51:22.756Z,17.88
2022-11-29T13:53:49.572Z,15.93
2022-11-29T13:56:48.375Z,22.05
2022-11-29T13:59:29.396Z,20.42
2022-11-29T14:01:58.199Z,18.92
2022-11-29T14:04:28.879Z,19.70
2022-11-29T14:07:11.297Z,19.20
2022-11-29T14:09:44.963Z,18.65
2022-11-29T14:12:41.356Z,19.02
2022-11-29T14:18:03.455Z,20.50
2022-11-29T14:20:29.781Z,21.08
2022-11-29T14:23:04.804Z,22.08
2022-11-29T14:25:54.959Z,22.33
2022-11-29T14:28:21.314Z,24.95
2022-11-29T14:30:52.998Z,23.95
2022-11-29T14:33:23.708Z,23.70
2022-11-29T14:36:02.972Z,24.70
2022-11-29T14:39:04.293Z,25.38
2022-11-29T14:41:49.278Z,24.73
2022-11-29T14:44:25.949Z,24.52
2022-11-29T14:47:01.822Z,21.38
2022-11-29T14:49:28.933Z,22.00
2022-11-29T14:52:08.691Z,23.05
2022-11-29T14:54:36.913Z,26.17
2022-11-29T14:57:40.768Z,24.90
2022-11-29T15:00:12.518Z,23.55
2022-11-29T15:02:44.304Z,24.48
2022-11-29T15:05:32.026Z,27.23
2022-11-29T15:08:15.019Z,22.80
2022-11-29T15:10:47.955Z,25.65
2022-11-29T15:13:23.122Z,25.95
2022-11-29T15:15:55.492Z,24.52
2022-11-29T15:18:53.299Z,23.08
2022-11-29T15:21:45.087Z,23.85
2022-11-29T15:24:13.824Z,31.17
2022-11-29T15:26:58.089Z,26.52
2022-11-29T15:29:25.028Z,25.65
2022-11-29T15:31:57.397Z,27.85
2022-11-29T15:34:32.373Z,28.13
2022-11-29T15:36:59.893Z,27.55
2022-11-29T15:39:27.819Z,26.95
2022-11-29T15:41:59.815Z,31.42
2022-11-29T15:44:26.226Z,28.85
2022-11-29T15:46:52.559Z,25.02
2022-11-29T15:49:27.029Z,29.25
2022-11-29T15:52:00.880Z,27.95
2022-11-29T15:54:38.537Z,28.67
2022-11-29T15:57:10.767Z,24.13
2022-11-29T15:59:47.748Z,29.02
2022-11-29T16:02:35.640Z,27.38
2022-11-29T16:05:16.424Z,26.27
2022-11-29T16:07:45.508Z,27.42
2022-11-29T16:10:18.817Z,26.98
2022-11-29T16:13:31.017Z,24.55
2022-11-29T16:16:12.457Z,25.90
2022-11-29T16:18:40.960Z,24.80
2022-11-29T16:21:20.397Z,27.08
2022-11-29T16:23:46.788Z,27.38
2022-11-29T16:26:15.819Z,24.55
2022-11-29T16:28:45.125Z,25.73
2022-11-29T16:31:18.088Z,21.13
2022-11-29T16:33:47.325Z,24.75
2022-11-29T16:36:26.443Z,23.55
2022-11-29T16:38:57.508Z,25.45
2022-11-29T16:41:32.831Z,25.90
2022-11-29T16:44:02.993Z,28.10
2022-11-29T16:46:32.158Z,24.67
2022-11-29T16:49:03.596Z,31.15
2022-11-29T16:51:45.657Z,27.95
2022-11-29T16:54:27.828Z,27.10
2022-11-29T16:56:56.237Z,28.52
2022-11-29T16:59:27.917Z,25.30
2022-11-29T17:01:56.234Z,23.10
2022-11-29T17:04:24.092Z,23.45
2022-11-29T17:06:55.731Z,25.70
2022-11-29T17:09:28.291Z,23.88
2022-11-29T17:11:55.794Z,20.33
2022-11-29T17:14:22.498Z,23.35
2022-11-29T17:16:52.054Z,21.27
2022-11-29T17:19:20.565Z,27.27
2022-11-29T17:21:47.523Z,22.67
2022-11-29T17:24:16.357Z,25.98
2022-11-29T17:26:43.524Z,26.77
2022-11-29T17:29:11.460Z,30.05
2022-11-29T17:31:38.436Z,22.63
2022-11-29T17:34:05.364Z,29.98
2022-11-29T17:36:31.988Z,25.60
2022-11-29T17:39:00.229Z,30.52
2022-11-29T17:41:27.237Z,30.40
2022-11-29T17:43:55.475Z,33.10
2022-11-29T17:46:24.397Z,31.90
2022-11-29T17:48:52.103Z,26.48
2022-11-29T17:51:50.013Z,28.92
2022-11-29T17:54:07.997Z,24.63
2022-11-29T17:56:34.626Z,25.10
2022-11-29T17:59:03.364Z,25.60
2022-11-29T18:01:33.547Z,24.20
2022-11-29T18:04:01.872Z,25.27
2022-11-29T18:06:34.805Z,24.90
2022-11-29T18:09:02.752Z,24.40
2022-11-29T18:11:45.245Z,23.23
2022-11-29T18:14:15.944Z,27.33
2022-11-29T18:16:42.821Z,28.25
2022-11-29T18:19:12.542Z,34.90
2022-11-29T18:21:39.302Z,40.03
2022-11-29T18:24:06.642Z,36.67
2022-11-29T18:26:35.063Z,34.33
2022-11-29T18:29:01.491Z,34.83
2022-11-29T18:31:36.671Z,32.50
2022-11-29T18:34:07.059Z,33.25
2022-11-29T18:36:37.435Z,30.10
2022-11-29T18:39:07.213Z,32.50
2022-11-29T18:41:33.514Z,30.55
2022-11-29T18:44:05.803Z,28.05
2022-11-29T18:46:32.998Z,27.25
2022-11-29T18:49:03.531Z,26.52
2022-11-29T18:51:31.027Z,23.17
2022-11-29T18:53:58.624Z,24.10
2022-11-29T18:56:27.955Z,24.00
2022-11-29T18:59:01.551Z,26.00
2022-11-29T19:01:30.911Z,28.25
2022-11-29T19:03:59.242Z,54.53
2022-11-29T19:06:38.576Z,34.15
2022-11-29T19:09:11.606Z,29.63
2022-11-29T19:11:38.437Z,23.73
2022-11-29T19:14:11.014Z,20.35
2022-11-29T19:16:39.265Z,27.73
2022-11-29T19:19:05.705Z,23.15
2022-11-29T19:21:34.439Z,23.55
2022-11-29T19:24:03.256Z,22.70
2022-11-29T19:26:31.262Z,25.35
2022-11-29T19:28:59.158Z,25.30
2022-11-29T19:31:27.013Z,33.50
2022-11-29T19:33:54.519Z,34.05
2022-11-29T19:36:28.799Z,27.55
2022-11-29T19:38:56.045Z,32.72
2022-11-29T19:41:28.596Z,41.58
2022-11-29T19:44:00.602Z,26.85
2022-11-29T19:46:30.715Z,23.88
2022-11-29T19:48:59.223Z,39.03
2022-11-29T19:51:27.000Z,47.30
2022-11-29T19:53:56.404Z,42.38
2022-11-29T19:56:23.493Z,44.15
2022-11-29T19:58:50.634Z,28.52
2022-11-29T20:01:20.136Z,32.38
2022-11-29T20:03:46.544Z,51.10
2022-11-29T20:06:15.748Z,46.72
2022-11-29T20:08:42.746Z,46.58
2022-11-29T20:11:15.671Z,37.40
2022-11-29T20:13:44.741Z,48.75
2022-11-29T20:16:14.574Z,41.08
2022-11-29T20:18:48.762Z,43.42
2022-11-29T20:21:21.840Z,55.97
2022-11-29T20:23:48.546Z,55.17
2022-11-29T20:26:19.574Z,39.03
2022-11-29T20:28:47.305Z,42.35
2022-11-29T20:31:17.168Z,44.90
2022-11-29T20:33:45.666Z,43.75
2022-11-29T20:36:30.562Z,42.00
2022-11-29T20:39:07.194Z,41.00
2022-11-29T20:41:39.356Z,41.40
2022-11-29T20:44:06.045Z,37.92
2022-11-29T20:46:32.621Z,34.00
2022-11-29T20:49:04.706Z,42.15
2022-11-29T20:51:41.112Z,41.15
2022-11-29T20:54:10.876Z,41.55
2022-11-29T20:56:37.238Z,39.95
2022-11-29T20:59:03.619Z,45.15
2022-11-29T21:01:29.981Z,44.67
2022-11-29T21:03:56.430Z,38.80
2022-11-29T21:06:22.789Z,38.85
2022-11-29T21:08:49.613Z,38.15
2022-11-29T21:11:16.260Z,36.35
2022-11-29T21:13:42.665Z,33.30
2022-11-29T21:16:11.535Z,28.40
2022-11-29T21:18:38.153Z,33.00
2022-11-29T21:21:24.972Z,27.02
2022-11-29T21:24:03.609Z,35.03
2022-11-29T21:26:41.931Z,32.33
2022-11-29T21:29:23.090Z,29.10
2022-11-29T21:31:52.448Z,41.17
2022-11-29T21:34:19.502Z,40.03
2022-11-29T21:36:52.247Z,43.17
2022-11-29T21:39:18.787Z,39.20
2022-11-29T21:41:45.191Z,33.80
2022-11-29T21:44:11.505Z,26.85
2022-11-29T21:46:37.864Z,23.48
2022-11-29T21:49:04.684Z,18.75
2022-11-29T21:51:31.078Z,20.00
2022-11-29T21:53:57.383Z,17.48
2022-11-29T21:56:23.803Z,20.83
2022-11-29T21:58:50.122Z,25.08
2022-11-29T22:01:19.005Z,17.20
2022-11-29T22:03:45.850Z,20.60
2022-11-29T22:06:14.905Z,19.45
2022-11-29T22:08:42.261Z,20.80
2022-11-29T22:11:11.418Z,23.00
2022-11-29T22:14:00.862Z,22.65
2022-11-29T22:16:28.561Z,24.23
2022-11-29T22:18:54.900Z,29.60
2022-11-29T22:21:22.297Z,26.67
2022-11-29T22:23:48.598Z,26.50
2022-11-29T22:26:14.918Z,28.15
2022-11-29T22:28:41.288Z,30.35
2022-11-29T22:31:10.253Z,29.38
2022-11-29T22:33:37.432Z,29.45
2022-11-29T22:36:10.010Z,28.95
2022-11-29T22:38:37.092Z,27.70
2022-11-29T22:41:09.390Z,33.78
2022-11-29T22:43:37.010Z,26.20
2022-11-29T22:46:18.938Z,25.25
2022-11-29T22:48:47.629Z,24.83
2022-11-29T22:51:19.439Z,23.88
2022-11-29T22:53:50.960Z,25.48
2022-11-29T22:56:18.058Z,27.50
2022-11-29T22:58:45.113Z,23.33
2022-11-29T23:01:17.894Z,22.98
2022-11-29T23:03:48.345Z,26.35
2022-11-29T23:06:19.598Z,26.58
2022-11-29T23:08:47.894Z,23.17
2022-11-29T23:11:17.797Z,22.80
2022-11-29T23:13:44.760Z,20.35
2022-11-29T23:16:14.554Z,18.98
2022-11-29T23:18:42.270Z,20.08
2022-11-29T23:21:10.400Z,22.45
2022-11-29T23:23:37.419Z,20.65
2022-11-29T23:26:04.878Z,21.70
2022-11-29T23:28:31.770Z,22.58
2022-11-29T23:30:58.748Z,24.77
2022-11-29T23:33:26.446Z,23.00
2022-11-29T23:36:00.657Z,24.95
2022-11-29T23:38:27.112Z,21.35
2022-11-29T23:40:53.561Z,24.92
2022-11-29T23:43:20.520Z,20.55
2022-11-29T23:45:46.872Z,20.95
2022-11-29T23:48:13.424Z,21.10
2022-11-29T23:50:40.687Z,21.98
2022-11-29T23:53:07.046Z,20.42
2022-11-29T23:55:33.398Z,19.77
2022-11-29T23:58:03.202Z,21.95
